Latest Weather Observations for Nuriootpa

IDS60801

Issued at 11:35 am CST Monday 21 April 2014 (issued every 30 minutes, with the page automatically refreshed every 10 minutes)

About weather observations | Map of weather stations | Latest weather observations for SA | Other Formats
Station Details ID: 023373 Name: NURIOOTPA VITICULTURAL Lat: -34.48 Lon: 139.01 Height: 275.0 m
Data from the previous 72 hours. | See also: Recent months at Nuriootpa
Date/Time
CST
Temp
°C
App
Temp
°C
Dew
Point
Rel
Hum
%
Delta-T
°C
Wind Press
QNH
hPa
Press
MSL
hPa
Rain
since 9 am
mm
Dir
 
Spd
km/h
Gust
km/h
Spd
kts
Gust
kts
21/11:31am 25.5 18.7 5.3 27 10.4 WNW 30 48 16 26 1014.9 - 0.0
21/11:30am 25.5 18.4 5.6 28 10.3 WNW 32 48 17 26 1015.0 1014.6 0.0
21/11:00am 25.2 19.1 6.6 30 9.8 NW 28 46 15 25 1015.2 - 0.0
21/10:38am 24.4 18.1 5.8 30 9.6 NW 28 48 15 26 1015.4 - 0.0
21/10:30am 24.1 17.8 5.9 31 9.4 NW 28 41 15 22 1015.4 1015.0 0.0
21/10:21am 23.9 17.6 5.6 30 9.4 NW 28 46 15 25 1015.5 - 0.0
21/10:00am 23.3 17.9 6.3 33 8.8 NNW 24 43 13 23 1015.5 - 0.0
21/09:30am 22.0 18.0 6.5 36 8.0 NNW 17 28 9 15 1015.7 1015.3 0.0
21/09:00am 20.2 17.2 7.7 44 6.5 N 13 19 7 10 1015.8 1015.4 0.0
21/08:30am 17.8 14.7 7.4 50 5.3 N 13 17 7 9 1015.9 1015.5 0.0
21/08:00am 16.5 13.3 6.7 52 4.9 N 13 20 7 11 1015.8 - 0.0
21/07:30am 16.1 12.8 6.4 52 4.8 NNE 13 22 7 12 1015.7 1015.3 0.0
21/07:00am 15.9 12.9 6.1 52 4.8 NE 11 17 6 9 1015.7 - 0.0
21/06:30am 15.5 12.6 6.4 54 4.5 NNE 11 17 6 9 1015.5 1015.1 0.0
21/06:00am 16.0 11.8 5.8 50 5.0 NE 17 26 9 14 1015.5 1015.1 0.0
21/05:30am 15.8 11.6 5.7 51 4.9 NNE 17 24 9 13 1015.6 1015.2 0.0
21/05:00am 16.1 11.8 5.4 49 5.2 NNE 17 26 9 14 1015.7 - 0.0
21/04:30am 15.6 11.0 5.7 51 4.8 NNE 19 26 10 14 1015.9 1015.5 0.0
21/04:00am 15.4 11.6 5.7 52 4.7 NNE 15 22 8 12 1016.1 - 0.0
21/03:30am 15.7 11.5 5.6 51 4.9 NNE 17 26 9 14 1016.3 1015.9 0.0
21/03:00am 14.8 12.2 6.2 56 4.2 NE 9 19 5 10 1016.3 1015.9 0.0
21/02:30am 14.5 11.6 6.5 58 3.9 NE 11 15 6 8 1016.8 1016.4 0.0
21/02:00am 14.4 12.0 6.9 60 3.7 NE 9 13 5 7 1017.1 - 0.0
21/01:30am 13.9 11.1 7.0 63 3.4 NE 11 17 6 9 1017.1 1016.7 0.0
21/01:00am 14.1 11.0 7.2 63 3.4 NE 13 19 7 10 1017.4 - 0.0
21/12:30am 13.8 11.6 7.8 67 3.0 NE 9 13 5 7 1017.6 1017.2 0.0
21/12:00am 13.3 11.6 8.3 72 2.5 NE 7 9 4 5 1017.8 1017.5 0.0
 
Date/Time
CST
Temp
°C
App
Temp
°C
Dew
Point
Rel
Hum
%
Delta-T
°C
Wind Press
QNH
hPa
Press
MSL
hPa
Rain
since 9 am
mm
Dir
 
Spd
km/h
Gust
km/h
Spd
kts
Gust
kts
20/11:30pm 13.7 11.2 8.1 69 2.8 NNE 11 17 6 9 1018.2 1017.8 0.0
20/11:00pm 12.4 9.9 8.4 76 2.0 NE 11 13 6 7 1018.4 - 0.0
20/10:30pm 11.5 9.9 8.9 84 1.3 ENE 7 9 4 5 1018.8 1018.4 0.0
20/10:00pm 11.7 10.2 9.1 84 1.3 NE 7 9 4 5 1019.1 - 0.0
20/09:30pm 12.1 10.3 9.4 83 1.4 NE 9 13 5 7 1019.0 1018.6 0.0
20/09:00pm 11.7 11.0 10.2 90 0.8 E 4 7 2 4 1018.8 1018.4 0.0
20/08:30pm 12.3 12.5 10.4 88 1.0 CALM 0 0 0 0 1018.8 1018.4 0.0
20/08:00pm 13.5 12.6 10.5 82 1.6 NE 6 7 3 4 1018.8 - 0.0
20/07:30pm 13.3 12.5 10.9 85 1.3 E 6 7 3 4 1019.0 1018.6 0.0
20/07:00pm 12.8 12.7 9.5 80 1.7 CALM 0 0 0 0 1018.8 - 0.0
20/06:30pm 14.2 14.3 10.2 77 2.1 CALM 0 0 0 0 1018.5 1018.1 0.0
20/06:00pm 16.2 16.2 9.8 66 3.4 CALM 0 6 0 3 1018.1 1017.7 0.0
20/05:30pm 18.1 16.0 8.1 52 5.2 WSW 9 11 5 6 1017.9 1017.6 0.0
20/05:00pm 18.7 16.2 8.1 50 5.5 WSW 11 15 6 8 1017.8 - 0.0
20/04:30pm 19.8 17.5 7.4 44 6.4 WSW 9 13 5 7 1017.7 1017.3 0.0
20/04:00pm 20.2 17.8 7.0 42 6.8 SW 9 15 5 8 1017.6 - 0.0
20/03:30pm 20.5 17.2 6.6 40 7.1 WSW 13 19 7 10 1017.6 1017.2 0.0
20/03:00pm 20.6 17.3 6.5 40 7.2 SW 13 22 7 12 1017.7 1017.3 0.0
20/02:30pm 20.7 16.7 6.6 40 7.2 SW 17 22 9 12 1017.5 1017.1 0.0
20/02:00pm 20.7 17.8 6.4 39 7.3 SW 11 17 6 9 1017.5 - 0.0
20/01:30pm 20.1 17.0 5.5 38 7.3 SW 11 19 6 10 1017.5 1017.1 0.0
20/01:00pm 19.5 16.9 5.9 41 6.8 WSW 9 13 5 7 1017.8 - 0.0
20/12:30pm 19.2 18.1 6.8 44 6.3 WSW 2 9 1 5 1018.2 1017.8 0.0
20/12:00pm 18.0 15.7 5.6 44 6.1 NNE 7 11 4 6 1018.7 1018.3 0.0
20/11:30am 18.0 15.3 5.6 44 6.1 W 9 15 5 8 1019.2 1018.8 0.0
20/11:00am 17.3 14.6 5.4 45 5.8 WSW 9 15 5 8 1019.5 - 0.0
20/10:30am 16.8 13.6 5.3 46 5.6 SW 11 19 6 10 1019.5 1019.1 0.0
20/10:00am 16.5 14.2 5.9 49 5.2 W 7 11 4 6 1019.6 - 0.0
20/09:30am 15.1 13.8 6.1 55 4.4 E 2 7 1 4 1019.6 1019.2 0.0
20/09:00am 14.0 13.1 7.6 65 3.2 NNE 2 7 1 4 1019.8 1019.4 0.0
20/08:30am 11.6 9.7 6.6 71 2.4 NNE 6 9 3 5 1019.5 1019.1 0.0
20/08:00am 9.1 7.7 5.6 79 1.6 NNE 2 9 1 5 1019.3 - 0.0
20/07:30am 7.0 6.1 5.9 93 0.5 CALM 0 6 0 3 1019.2 1018.8 0.0
20/07:00am 5.4 4.2 4.7 95 0.3 CALM 0 0 0 0 1018.6 - 0.0
20/06:30am 5.3 4.1 4.6 95 0.3 CALM 0 0 0 0 1018.4 1018.0 0.0
20/06:00am 5.7 4.2 5.0 95 0.3 WNW 2 7 1 4 1018.4 1018.0 0.0
20/05:30am 6.4 5.0 5.7 95 0.3 NNE 2 7 1 4 1017.9 1017.6 0.0
20/05:00am 7.5 6.7 6.4 93 0.5 CALM 0 0 0 0 1018.1 - 0.0
20/04:30am 8.9 8.4 7.7 92 0.6 CALM 0 0 0 0 1017.6 1017.2 0.0
20/04:00am 9.0 8.5 8.0 93 0.5 CALM 0 0 0 0 1017.6 - 0.0
20/03:30am 8.8 8.2 7.6 92 0.6 CALM 0 0 0 0 1017.7 1017.3 0.0
20/03:00am 9.4 9.0 8.2 92 0.6 CALM 0 0 0 0 1017.6 1017.2 0.0
20/02:30am 9.2 8.7 8.0 92 0.6 CALM 0 0 0 0 1017.6 1017.2 0.0
20/02:00am 8.9 8.0 7.9 93 0.5 E 2 6 1 3 1017.8 - 0.0
20/01:30am 8.4 6.3 6.7 89 0.8 ENE 7 9 4 5 1018.1 1017.7 0.0
20/01:00am 8.1 5.9 6.2 88 0.9 NE 7 9 4 5 1018.4 - 0.0
20/12:30am 7.1 5.0 5.8 91 0.6 E 6 11 3 6 1018.4 1018.0 0.0
20/12:00am 7.2 5.1 5.7 90 0.7 NE 6 11 3 6 1018.3 1017.9 0.0
 
Date/Time
CST
Temp
°C
App
Temp
°C
Dew
Point
Rel
Hum
%
Delta-T
°C
Wind Press
QNH
hPa
Press
MSL
hPa
Rain
since 9 am
mm
Dir
 
Spd
km/h
Gust
km/h
Spd
kts
Gust
kts
19/11:30pm 7.4 5.2 6.1 91 0.6 NE 7 9 4 5 1018.5 1018.1 0.0
19/11:00pm 7.1 6.2 6.2 94 0.4 CALM 0 0 0 0 1018.5 - 0.0
19/10:30pm 6.7 5.8 6.0 95 0.3 CALM 0 0 0 0 1018.8 1018.4 0.0
19/10:00pm 7.2 6.4 6.3 94 0.4 CALM 0 0 0 0 1019.0 - 0.0
19/09:30pm 7.2 6.2 5.7 90 0.7 CALM 0 0 0 0 1019.1 1018.7 0.0
19/09:00pm 7.7 6.8 6.0 89 0.8 CALM 0 0 0 0 1018.9 1018.5 0.0
19/08:30pm 8.1 7.4 7.0 93 0.5 CALM 0 0 0 0 1019.0 1018.6 0.0
19/08:00pm 8.6 7.9 7.1 90 0.7 CALM 0 0 0 0 1018.9 - 0.0
19/07:30pm 8.9 8.2 6.8 87 1.0 CALM 0 0 0 0 1019.0 1018.6 0.0
19/07:00pm 9.6 7.6 6.4 80 1.5 E 6 7 3 4 1019.0 - 0.0
19/06:30pm 10.9 9.0 6.7 75 2.0 NE 6 7 3 4 1018.8 1018.4 0.0
19/06:00pm 12.3 10.4 6.7 68 2.7 ENE 6 7 3 4 1018.8 1018.4 0.0
19/05:30pm 14.2 11.5 5.4 55 4.2 NE 9 11 5 6 1018.6 1018.2 0.0
19/05:00pm 15.0 12.1 4.6 50 4.9 NE 9 15 5 8 1018.7 - 0.0
19/04:30pm 15.3 12.5 5.0 50 4.9 ENE 9 11 5 6 1018.7 1018.3 0.0
19/04:00pm 16.1 12.8 4.5 46 5.5 NE 11 15 6 8 1018.8 - 0.0
19/03:30pm 16.5 13.2 4.6 45 5.7 NE 11 19 6 10 1018.9 1018.5 0.0
19/03:00pm 16.3 12.8 3.7 43 5.9 ENE 11 15 6 8 1019.2 1018.8 0.0
19/02:30pm 16.2 12.2 3.0 41 6.1 NNE 13 20 7 11 1019.2 1018.8 0.0
19/02:00pm 15.4 12.9 3.8 46 5.4 ESE 6 9 3 5 1019.6 - 0.0
19/01:30pm 15.8 13.0 3.2 43 5.8 N 7 13 4 7 1020.0 1019.6 0.0
19/01:00pm 15.5 12.8 5.6 51 4.8 NE 9 17 5 9 1020.5 - 0.0
19/12:30pm 15.2 11.9 4.6 49 5.0 NNE 11 22 6 12 1021.0 1020.7 0.0
19/12:00pm 14.9 11.7 5.0 51 4.7 NE 11 19 6 10 1021.7 1021.4 0.0
19/11:30am 14.5 11.3 5.0 53 4.5 E 11 15 6 8 1022.3 1021.9 0.0
19/11:00am 13.9 11.0 4.7 54 4.3 ENE 9 15 5 8 1022.6 - 0.0
19/10:30am 14.3 10.6 4.7 52 4.5 N 13 20 7 11 1022.9 1022.5 0.0
19/10:00am 13.9 11.0 6.5 61 3.6 NNE 11 17 6 9 1023.2 - 0.0
19/09:30am 13.1 10.4 7.2 67 2.9 NNE 11 15 6 8 1023.7 1023.3 0.0
19/09:00am 11.8 10.0 8.0 77 1.9 NNE 7 11 4 6 1023.7 1023.3 0.2
19/08:30am 10.0 8.1 7.5 84 1.2 NNE 7 9 4 5 1023.6 1023.2 0.2
19/08:00am 7.1 5.1 6.2 94 0.4 NE 6 7 3 4 1023.4 - 0.2
19/07:30am 5.1 2.6 4.9 99 0.1 NNE 7 7 4 4 1023.2 1022.8 0.2
19/07:00am 2.9 0.2 2.7 99 0.1 N 6 7 3 4 1023.0 - 0.2
19/06:30am 2.6 1.0 2.3 98 0.1 CALM 0 0 0 0 1022.8 1022.4 0.2
19/06:00am 3.1 0.4 2.6 96 0.2 ENE 6 9 3 5 1022.7 1022.3 0.2
19/05:30am 3.1 0.4 2.9 99 0.1 NE 6 15 3 8 1022.6 1022.2 0.2
19/05:00am 2.9 0.2 2.7 99 0.1 N 6 9 3 5 1022.5 - 0.2
19/04:30am 3.4 0.6 3.2 99 0.1 NNE 7 7 4 4 1022.3 1021.9 0.2
19/04:00am 3.2 0.5 2.7 96 0.2 NE 6 7 3 4 1022.3 - 0.2
19/03:30am 3.3 0.7 3.1 99 0.1 N 6 7 3 4 1022.4 1022.0 0.2
19/03:00am 3.7 2.2 3.2 97 0.2 CALM 0 0 0 0 1022.4 1022.0 0.2
19/02:30am 3.7 2.3 3.5 99 0.1 CALM 0 0 0 0 1022.7 1022.3 0.2
19/02:00am 4.4 3.1 3.9 97 0.2 CALM 0 0 0 0 1022.9 - 0.2
19/01:30am 4.4 3.0 3.7 95 0.3 CALM 0 0 0 0 1023.2 1022.8 0.2
19/01:00am 4.6 3.3 3.9 95 0.3 CALM 0 0 0 0 1023.2 - 0.2
19/12:30am 5.4 4.2 4.7 95 0.3 CALM 0 0 0 0 1023.3 1022.9 0.2
19/12:00am 6.2 5.0 4.8 91 0.6 CALM 0 0 0 0 1023.2 1022.8 0.2
 
Date/Time
CST
Temp
°C
App
Temp
°C
Dew
Point
Rel
Hum
%
Delta-T
°C
Wind Press
QNH
hPa
Press
MSL
hPa
Rain
since 9 am
mm
Dir
 
Spd
km/h
Gust
km/h
Spd
kts
Gust
kts
18/11:30pm 7.3 5.2 5.8 90 0.7 N 6 7 3 4 1023.3 1022.9 0.2
18/11:00pm 7.7 6.3 5.5 86 1.0 NNW 2 7 1 4 1023.3 - 0.2
18/10:30pm 8.5 7.1 5.4 81 1.4 S 2 7 1 4 1023.5 1023.1 0.2
18/10:00pm 8.3 6.5 5.4 82 1.3 E 4 7 2 4 1023.5 - 0.2
18/09:30pm 9.7 7.3 5.1 73 2.1 SSE 7 9 4 5 1023.6 1023.2 0.2
18/09:00pm 9.6 8.1 5.2 74 2.0 ESE 2 7 1 4 1023.5 1023.1 0.2
18/08:30pm 10.3 8.0 4.8 69 2.5 SSW 6 9 3 5 1023.4 1023.0 0.2
18/08:00pm 11.2 8.3 4.4 63 3.1 S 9 11 5 6 1023.3 - 0.2
18/07:30pm 11.5 8.5 4.2 61 3.3 ESE 9 20 5 11 1023.1 1022.7 0.2
18/07:00pm 11.9 8.2 4.5 60 3.4 SE 13 22 7 12 1022.9 - 0.2
18/06:30pm 12.9 8.8 4.5 56 3.9 SSE 15 24 8 13 1022.7 1022.3 0.2
18/06:00pm 13.2 8.9 5.4 59 3.7 SE 17 26 9 14 1022.3 1021.9 0.2
18/05:30pm 14.5 10.3 5.5 54 4.3 SSE 17 28 9 15 1022.0 1021.6 0.2
18/05:00pm 15.7 11.3 6.6 54 4.5 SE 19 28 10 15 1021.9 - 0.2
18/04:30pm 16.3 12.5 5.9 50 5.1 SE 15 20 8 11 1021.7 1021.4 0.2
18/04:00pm 17.7 13.2 6.8 49 5.5 SE 20 26 11 14 1021.4 - 0.2
18/03:30pm 18.6 14.4 8.2 50 5.4 WSW 20 30 11 16 1021.1 1020.8 0.2
18/03:00pm 18.7 14.6 8.6 52 5.3 WSW 20 32 11 17 1021.0 1020.7 0.2
18/02:30pm 18.5 13.4 7.6 49 5.6 WSW 24 30 13 16 1020.9 1020.6 0.2
18/02:00pm 18.8 13.7 7.8 48 5.7 WSW 24 33 13 18 1020.7 - 0.2
18/01:30pm 18.9 14.0 6.9 45 6.1 SW 22 33 12 18 1020.8 1020.4 0.2
18/01:00pm 19.1 14.6 8.4 50 5.6 WSW 22 33 12 18 1020.9 - 0.2
18/12:30pm 18.8 14.8 9.2 53 5.1 SW 20 32 11 17 1021.4 1021.1 0.2
18/12:00pm 18.5 14.8 10.2 58 4.5 SW 20 30 11 16 1021.7 1021.4 0.2

Other Formats:

Comma delimited format used in spreadsheet applications
http://www.bom.gov.au/fwo/IDS60801/IDS60801.94681.axf

JavaScript Object Notation format (JSON) in row-major order
http://www.bom.gov.au/fwo/IDS60801/IDS60801.94681.json